TimeMST,TemperatureF,Dew PointF,Humidity,Sea Level PressureIn,VisibilityMPH,Wind Direction,Wind SpeedMPH,Gust SpeedMPH,PrecipitationIn,Events,Conditions,WindDirDegrees,DateUTC
12:53 AM,24.8,3.2,40,30.17,10.0,WSW,10.4,-,N/A,,Clear,240,2013-01-03 07:53:00
1:53 AM,24.1,3.0,40,30.25,10.0,SW,11.5,-,N/A,,Clear,230,2013-01-03 08:53:00
2:53 AM,28.0,3.9,36,30.22,10.0,SW,10.4,-,N/A,,Clear,220,2013-01-03 09:53:00
3:53 AM,26.1,6.1,43,30.20,10.0,SW,16.1,-,N/A,,Clear,230,2013-01-03 10:53:00
4:53 AM,27.0,6.1,41,30.19,10.0,West,9.2,-,N/A,,Clear,260,2013-01-03 11:53:00
5:53 AM,30.0,7.0,38,30.17,10.0,SW,16.1,-,N/A,,Clear,230,2013-01-03 12:53:00
6:53 AM,24.1,6.1,46,30.18,10.0,WSW,10.4,-,N/A,,Clear,250,2013-01-03 13:53:00
7:53 AM,16.0,5.0,62,30.19,10.0,WNW,10.4,-,N/A,,Clear,290,2013-01-03 14:53:00
8:53 AM,28.0,7.0,41,30.17,10.0,WSW,15.0,-,N/A,,Clear,250,2013-01-03 15:53:00
9:53 AM,21.9,7.0,53,30.19,10.0,West,11.5,-,N/A,,Clear,270,2013-01-03 16:53:00
10:53 AM,28.0,12.0,51,30.18,10.0,West,9.2,-,N/A,,Clear,270,2013-01-03 17:53:00
11:53 AM,39.9,16.0,38,30.15,10.0,WSW,15.0,-,N/A,,Clear,250,2013-01-03 18:53:00
12:53 PM,46.0,18.0,33,30.12,10.0,SW,15.0,21.9,N/A,,Clear,230,2013-01-03 19:53:00
1:53 PM,46.9,19.0,33,30.12,10.0,SW,15.0,23.0,N/A,,Clear,230,2013-01-03 20:53:00
2:53 PM,48.0,19.0,32,30.12,10.0,WSW,11.5,-,N/A,,Clear,240,2013-01-03 21:53:00
3:53 PM,32.0,17.1,54,30.14,10.0,WSW,6.9,-,N/A,,Clear,250,2013-01-03 22:53:00
4:53 PM,24.1,14.0,65,30.15,10.0,West,8.1,-,N/A,,Clear,280,2013-01-03 23:53:00
5:53 PM,21.9,12.9,68,30.16,10.0,West,6.9,-,N/A,,Clear,270,2013-01-04 00:53:00
6:53 PM,19.0,10.9,71,30.17,10.0,West,8.1,-,N/A,,Clear,280,2013-01-04 01:53:00
7:53 PM,35.1,12.9,40,30.15,10.0,SW,13.8,-,N/A,,Clear,230,2013-01-04 02:53:00
8:53 PM,21.0,10.9,65,30.14,10.0,West,5.8,-,N/A,,Clear,260,2013-01-04 03:53:00
9:53 PM,19.9,9.0,62,30.14,10.0,WSW,8.1,-,N/A,,Clear,250,2013-01-04 04:53:00
10:53 PM,16.0,8.1,71,30.13,10.0,WNW,8.1,-,N/A,,Clear,290,2013-01-04 05:53:00
11:53 PM,25.0,10.0,53,30.09,10.0,Calm,Calm,-,N/A,,Clear,0,2013-01-04 06:53:00